createdAt,value
2023-03-26T00:00:12.585Z,99760.47
2023-03-26T00:02:39.748Z,99755.56
2023-03-26T00:05:06.611Z,99762.41
2023-03-26T00:07:33.412Z,99754.41
2023-03-26T00:10:00.160Z,99756.38
2023-03-26T00:12:27.131Z,99758.44
2023-03-26T00:14:53.858Z,99770.31
2023-03-26T00:17:21.138Z,99770.56
2023-03-26T00:19:47.904Z,99771.00
2023-03-26T00:22:16.942Z,99768.56
2023-03-26T00:24:45.897Z,99771.94
2023-03-26T00:27:12.669Z,99774.47
2023-03-26T00:29:39.819Z,99774.03
2023-03-26T00:32:06.618Z,99773.38
2023-03-26T00:34:34.339Z,99771.81
2023-03-26T00:37:02.430Z,99766.06
2023-03-26T00:39:29.250Z,99769.41
2023-03-26T00:41:56.029Z,99765.72
2023-03-26T00:44:22.837Z,99768.91
2023-03-26T00:46:49.598Z,99769.53
2023-03-26T00:49:16.359Z,99773.16
2023-03-26T00:51:43.158Z,99778.06
2023-03-26T00:54:09.903Z,99783.75
2023-03-26T00:56:36.824Z,99784.31
2023-03-26T00:59:03.799Z,99782.09
2023-03-26T01:01:31.595Z,99772.16
2023-03-26T01:04:08.750Z,99765.44
2023-03-26T01:06:36.684Z,99767.69
2023-03-26T01:09:03.761Z,99765.31
2023-03-26T01:11:30.663Z,99767.47
2023-03-26T01:13:57.403Z,99776.31
2023-03-26T01:16:24.197Z,99771.34
2023-03-26T01:18:52.609Z,99762.13
2023-03-26T01:21:22.532Z,99773.53
2023-03-26T01:23:49.312Z,99777.53
2023-03-26T01:26:16.077Z,99779.28
2023-03-26T01:28:42.814Z,99776.38
2023-03-26T01:31:09.936Z,99781.38
2023-03-26T01:33:36.791Z,99787.31
2023-03-26T01:36:03.648Z,99783.53
2023-03-26T01:38:30.491Z,99779.22
2023-03-26T01:40:57.739Z,99783.50
2023-03-26T01:43:24.468Z,99779.97
2023-03-26T01:45:51.218Z,99790.25
2023-03-26T01:48:18.005Z,99787.34
2023-03-26T01:50:44.840Z,99798.19
2023-03-26T01:53:11.635Z,99797.00
2023-03-26T01:55:38.388Z,99790.03
2023-03-26T01:58:05.258Z,99789.22
2023-03-26T02:00:32.241Z,99781.63
2023-03-26T02:02:59.188Z,99779.03
2023-03-26T02:05:26.506Z,99781.22
2023-03-26T02:07:53.386Z,99779.03
2023-03-26T02:10:20.969Z,99774.28
2023-03-26T02:12:47.728Z,99772.44
2023-03-26T02:15:14.550Z,99772.72
2023-03-26T02:17:41.417Z,99776.47
2023-03-26T02:20:09.781Z,99779.72
2023-03-26T02:22:40.641Z,99779.91
2023-03-26T02:25:07.628Z,99779.72
2023-03-26T02:27:34.371Z,99782.13
2023-03-26T02:30:02.313Z,99784.59
2023-03-26T02:32:29.407Z,99780.56
2023-03-26T02:34:56.255Z,99784.06
2023-03-26T02:37:23.034Z,99788.13
2023-03-26T02:39:49.776Z,99790.81
2023-03-26T02:42:16.522Z,99778.41
2023-03-26T02:44:43.322Z,99779.00
2023-03-26T02:47:10.097Z,99788.38
2023-03-26T02:49:36.937Z,99789.13
2023-03-26T02:52:06.297Z,99789.75
2023-03-26T02:54:34.112Z,99789.28
2023-03-26T02:57:00.978Z,99791.22
2023-03-26T02:59:27.779Z,99788.22
2023-03-26T03:01:54.569Z,99788.72
2023-03-26T03:04:21.776Z,99787.53
2023-03-26T03:06:52.843Z,99790.09
2023-03-26T03:09:20.036Z,99798.69
2023-03-26T03:11:46.800Z,99785.03
2023-03-26T03:14:13.597Z,99791.22
2023-03-26T03:16:41.064Z,99796.72
2023-03-26T03:19:07.880Z,99784.56
2023-03-26T03:21:34.674Z,99792.59
2023-03-26T03:24:01.398Z,99790.72
2023-03-26T03:26:29.517Z,99791.56
2023-03-26T03:28:57.374Z,99798.50
2023-03-26T03:31:24.666Z,99787.59
2023-03-26T03:33:51.441Z,99791.56
2023-03-26T03:36:20.176Z,99786.72
2023-03-26T03:38:48.542Z,99788.13
2023-03-26T03:41:15.475Z,99785.13
2023-03-26T03:43:42.238Z,99780.34
2023-03-26T03:46:09.002Z,99782.47
2023-03-26T03:48:38.154Z,99784.31
2023-03-26T03:51:05.069Z,99783.78
2023-03-26T03:53:31.845Z,99789.31
2023-03-26T03:55:59.569Z,99787.34
2023-03-26T03:58:28.049Z,99781.34
2023-03-26T04:01:00.602Z,99787.69
2023-03-26T04:03:33.613Z,99788.69
2023-03-26T04:06:01.378Z,99785.72
2023-03-26T04:08:28.224Z,99784.63
2023-03-26T04:10:55.108Z,99792.22
2023-03-26T04:13:21.947Z,99792.13
2023-03-26T04:15:48.720Z,99783.88
2023-03-26T04:18:15.538Z,99780.81
2023-03-26T04:20:46.275Z,99782.56
2023-03-26T04:23:14.144Z,99787.59
2023-03-26T04:25:41.013Z,99789.41
2023-03-26T04:28:08.402Z,99785.34
2023-03-26T04:30:35.145Z,99793.88
2023-03-26T04:33:03.850Z,99794.81
2023-03-26T04:35:34.249Z,99793.44
2023-03-26T04:38:01.008Z,99796.56
2023-03-26T04:40:30.375Z,99794.28
2023-03-26T04:42:59.805Z,99791.72
2023-03-26T04:45:26.608Z,99793.31
2023-03-26T04:47:53.405Z,99789.56
2023-03-26T04:50:20.209Z,99784.91
2023-03-26T04:52:46.946Z,99792.91
2023-03-26T04:55:13.723Z,99791.72
2023-03-26T04:57:42.569Z,99804.38
2023-03-26T05:00:14.882Z,99796.47
2023-03-26T05:02:41.777Z,99801.53
2023-03-26T05:05:08.547Z,99798.22
2023-03-26T05:07:35.682Z,99793.88
2023-03-26T05:10:03.623Z,99800.00
2023-03-26T05:12:30.640Z,99794.22
2023-03-26T05:14:57.482Z,99791.56
2023-03-26T05:17:24.288Z,99794.72
2023-03-26T05:19:51.972Z,99797.91
2023-03-26T05:22:18.733Z,99794.78
2023-03-26T05:24:45.485Z,99794.41
2023-03-26T05:27:12.368Z,99790.91
2023-03-26T05:29:39.123Z,99801.19
2023-03-26T05:32:05.991Z,99796.44
2023-03-26T05:34:32.883Z,99801.09
2023-03-26T05:36:59.683Z,99801.22
2023-03-26T05:39:27.495Z,99801.53
2023-03-26T05:41:54.276Z,99801.94
2023-03-26T05:44:21.011Z,99808.72
2023-03-26T05:46:47.759Z,99801.16
2023-03-26T05:49:14.526Z,99805.28
2023-03-26T05:51:41.273Z,99800.44
2023-03-26T05:54:08.040Z,99800.06
2023-03-26T05:56:34.810Z,99797.69
2023-03-26T05:59:01.602Z,99792.88
2023-03-26T06:01:29.285Z,99793.44
2023-03-26T06:03:56.151Z,99794.06
2023-03-26T06:06:23.765Z,99792.06
2023-03-26T06:09:01.975Z,99792.16
2023-03-26T06:11:29.554Z,99783.91
2023-03-26T06:13:56.285Z,99779.72
2023-03-26T06:16:27.527Z,99783.16
2023-03-26T06:18:56.893Z,99777.31
2023-03-26T06:21:24.353Z,99776.31
2023-03-26T06:23:51.615Z,99784.16
2023-03-26T06:26:18.432Z,99778.41
2023-03-26T06:28:45.204Z,99785.00
2023-03-26T06:31:12.098Z,99783.72
2023-03-26T06:33:38.923Z,99774.97
2023-03-26T06:36:05.934Z,99777.34
2023-03-26T06:38:32.841Z,99772.63
2023-03-26T06:40:59.626Z,99775.06
2023-03-26T06:43:26.423Z,99770.28
2023-03-26T06:45:53.190Z,99781.72
2023-03-26T06:48:19.950Z,99772.63
2023-03-26T06:50:46.685Z,99776.13
2023-03-26T06:53:13.408Z,99783.88
2023-03-26T06:55:40.193Z,99781.41
2023-03-26T06:58:06.946Z,99780.06
2023-03-26T07:00:33.684Z,99781.56
2023-03-26T07:03:00.482Z,99782.53
2023-03-26T07:05:27.240Z,99780.22
2023-03-26T07:07:53.983Z,99776.47
2023-03-26T07:10:20.911Z,99766.38
2023-03-26T07:12:47.699Z,99764.84
2023-03-26T07:15:14.452Z,99768.19
2023-03-26T07:17:41.294Z,99765.63
2023-03-26T07:20:08.127Z,99764.84
2023-03-26T07:22:35.027Z,99767.41
2023-03-26T07:25:01.839Z,99771.19
2023-03-26T07:27:28.973Z,99764.13
2023-03-26T07:29:56.684Z,99761.91
2023-03-26T07:32:23.472Z,99762.38
2023-03-26T07:34:50.384Z,99769.41
2023-03-26T07:37:17.125Z,99768.56
2023-03-26T07:39:43.960Z,99771.16
2023-03-26T07:42:10.720Z,99765.69
2023-03-26T07:44:37.474Z,99769.06
2023-03-26T07:47:04.774Z,99765.16
2023-03-26T07:49:32.487Z,99767.09
2023-03-26T07:51:59.261Z,99771.56
2023-03-26T07:54:26.202Z,99763.97
2023-03-26T07:56:56.557Z,99759.13
2023-03-26T07:59:25.884Z,99755.63
2023-03-26T08:01:52.687Z,99756.88
2023-03-26T08:04:24.063Z,99745.53
2023-03-26T08:06:53.007Z,99750.03
2023-03-26T08:09:20.549Z,99753.47
2023-03-26T08:11:47.369Z,99741.00
2023-03-26T08:14:14.109Z,99741.78
2023-03-26T08:16:40.964Z,99736.56
2023-03-26T08:19:07.738Z,99740.19
2023-03-26T08:21:34.708Z,99744.75
2023-03-26T08:24:01.558Z,99744.50
2023-03-26T08:26:29.476Z,99738.50
2023-03-26T08:28:56.236Z,99739.22
2023-03-26T08:31:23.044Z,99748.47
2023-03-26T08:33:49.972Z,99750.97
2023-03-26T08:36:16.729Z,99741.91
2023-03-26T08:38:45.120Z,99740.75
2023-03-26T08:41:18.744Z,99741.38
2023-03-26T08:43:45.495Z,99730.25
2023-03-26T08:46:12.295Z,99736.63
2023-03-26T08:48:39.034Z,99738.22
2023-03-26T08:51:07.584Z,99731.53
2023-03-26T08:53:34.338Z,99736.06
2023-03-26T08:56:01.247Z,99721.34
2023-03-26T08:58:28.008Z,99725.84
2023-03-26T09:00:54.997Z,99725.44
2023-03-26T09:03:22.003Z,99725.25
2023-03-26T09:05:48.756Z,99723.91
2023-03-26T09:08:15.833Z,99722.94
2023-03-26T09:10:42.583Z,99720.75
2023-03-26T09:13:09.380Z,99729.59
2023-03-26T09:15:36.127Z,99734.16
2023-03-26T09:18:02.902Z,99730.09
2023-03-26T09:20:29.676Z,99734.41
2023-03-26T09:22:56.451Z,99724.59
2023-03-26T09:25:23.202Z,99724.38
2023-03-26T09:27:50.153Z,99726.91
2023-03-26T09:30:16.900Z,99724.53
2023-03-26T09:32:43.924Z,99721.41
2023-03-26T09:35:13.068Z,99718.44
2023-03-26T09:37:57.376Z,99711.38
2023-03-26T09:40:25.211Z,99706.50
2023-03-26T09:42:52.154Z,99705.72
2023-03-26T09:45:18.964Z,99708.31
2023-03-26T09:47:46.066Z,99701.34
2023-03-26T09:50:12.865Z,99702.91
2023-03-26T09:52:39.628Z,99703.94
2023-03-26T09:55:08.145Z,99696.28
2023-03-26T09:57:34.941Z,99700.78
2023-03-26T10:00:01.771Z,99697.47
2023-03-26T10:02:45.826Z,99691.19
2023-03-26T10:05:14.066Z,99692.13
2023-03-26T10:07:40.826Z,99697.53
2023-03-26T10:10:07.595Z,99687.59
2023-03-26T10:12:34.517Z,99679.44
2023-03-26T10:15:01.446Z,99681.41
2023-03-26T10:17:28.574Z,99676.81
2023-03-26T10:19:55.396Z,99671.06
2023-03-26T10:22:22.203Z,99665.59
2023-03-26T10:24:48.948Z,99666.53
2023-03-26T10:27:15.832Z,99662.06
2023-03-26T10:29:42.624Z,99662.16
2023-03-26T10:32:09.410Z,99657.63
2023-03-26T10:34:36.155Z,99659.13
2023-03-26T10:37:02.899Z,99658.56
2023-03-26T10:39:36.918Z,99655.81
2023-03-26T10:42:06.132Z,99653.50
2023-03-26T10:44:33.096Z,99650.50
2023-03-26T10:46:59.858Z,99655.63
2023-03-26T10:49:26.605Z,99651.69
2023-03-26T10:51:53.517Z,99651.59
2023-03-26T10:54:20.367Z,99642.25
2023-03-26T10:56:47.335Z,99638.25
2023-03-26T10:59:14.170Z,99633.53
2023-03-26T11:01:41.432Z,99628.81
2023-03-26T11:04:08.368Z,99619.72
2023-03-26T11:06:35.290Z,99623.06
2023-03-26T11:09:02.103Z,99623.84
2023-03-26T11:11:29.312Z,99615.72
2023-03-26T11:13:56.057Z,99625.69
2023-03-26T11:16:22.872Z,99629.88
2023-03-26T11:18:49.640Z,99630.03
2023-03-26T11:21:19.880Z,99638.72
2023-03-26T11:23:47.277Z,99630.47
2023-03-26T11:26:31.736Z,99623.56
2023-03-26T11:29:04.049Z,99621.28
2023-03-26T11:31:45.468Z,99626.34
2023-03-26T11:34:12.263Z,99619.78
2023-03-26T11:36:39.359Z,99620.53
2023-03-26T11:39:08.765Z,99615.88
2023-03-26T11:41:35.548Z,99614.94
2023-03-26T11:44:03.806Z,99606.94
2023-03-26T11:46:33.133Z,99609.16
2023-03-26T11:49:00.460Z,99613.59
2023-03-26T11:51:27.414Z,99600.03
2023-03-26T11:53:54.474Z,99607.69
2023-03-26T11:56:21.232Z,99603.56
2023-03-26T11:58:48.090Z,99604.91
2023-03-26T12:01:15.308Z,99608.31
2023-03-26T12:03:42.048Z,99603.84
2023-03-26T12:06:11.125Z,99611.25
2023-03-26T12:08:37.954Z,99612.81
2023-03-26T12:11:04.719Z,99604.50
2023-03-26T12:13:31.463Z,99606.81
2023-03-26T12:15:58.618Z,99601.53
2023-03-26T12:18:25.978Z,99598.34
2023-03-26T12:20:53.969Z,99598.41
2023-03-26T12:23:20.864Z,99601.34
2023-03-26T12:25:47.607Z,99594.38
2023-03-26T12:28:15.456Z,99592.53
2023-03-26T12:30:42.256Z,99578.81
2023-03-26T12:33:09.477Z,99586.84
2023-03-26T12:35:36.279Z,99583.50
2023-03-26T12:38:03.055Z,99585.91
2023-03-26T12:40:30.060Z,99585.25
2023-03-26T12:44:46.329Z,99574.34
2023-03-26T12:45:44.440Z,99568.16
2023-03-26T12:48:11.613Z,99573.69
2023-03-26T12:50:38.449Z,99576.59
2023-03-26T12:53:05.464Z,99574.47
2023-03-26T12:55:32.270Z,99576.13
2023-03-26T12:57:59.003Z,99576.78
2023-03-26T13:00:25.791Z,99562.09
2023-03-26T13:02:53.025Z,99568.22
2023-03-26T13:05:19.874Z,99568.59
2023-03-26T13:07:47.152Z,99574.06
2023-03-26T13:10:15.511Z,99562.22
2023-03-26T13:12:42.274Z,99562.88
2023-03-26T13:15:09.043Z,99555.06
2023-03-26T13:17:35.824Z,99547.50
2023-03-26T13:20:02.673Z,99564.38
2023-03-26T13:22:29.484Z,99561.78
2023-03-26T13:24:56.225Z,99545.59
2023-03-26T13:27:23.021Z,99546.97
2023-03-26T13:29:56.180Z,99551.28
2023-03-26T13:32:23.048Z,99547.28
2023-03-26T13:34:49.836Z,99536.81
2023-03-26T13:37:16.580Z,99528.69
2023-03-26T13:39:45.439Z,99528.81
2023-03-26T13:42:12.209Z,99533.97
2023-03-26T13:44:39.126Z,99523.81
2023-03-26T13:47:06.085Z,99522.97
2023-03-26T13:49:37.045Z,99524.47
2023-03-26T13:52:04.296Z,99517.28
2023-03-26T13:54:31.165Z,99518.00
2023-03-26T13:56:58.383Z,99513.34
2023-03-26T13:59:25.578Z,99510.56
2023-03-26T14:01:53.317Z,99515.72
2023-03-26T14:04:21.346Z,99510.97
2023-03-26T14:06:48.658Z,99508.69
2023-03-26T14:09:15.468Z,99508.66
2023-03-26T14:11:42.215Z,99499.03
2023-03-26T14:14:09.001Z,99501.41
2023-03-26T14:16:35.747Z,99501.22
2023-03-26T14:19:04.642Z,99507.16
2023-03-26T14:21:33.363Z,99510.00
2023-03-26T14:24:00.497Z,99503.19
2023-03-26T14:26:27.278Z,99505.75
2023-03-26T14:28:54.064Z,99511.69
2023-03-26T14:31:20.835Z,99512.56
2023-03-26T14:33:47.598Z,99510.41
2023-03-26T14:36:14.604Z,99514.94
2023-03-26T14:38:41.593Z,99516.06
2023-03-26T14:41:08.359Z,99525.88
2023-03-26T14:43:35.106Z,99519.53
2023-03-26T14:46:01.998Z,99522.53
2023-03-26T14:48:28.957Z,99528.56
2023-03-26T14:50:56.019Z,99531.63
2023-03-26T14:53:23.150Z,99539.38
2023-03-26T14:55:49.915Z,99542.13
2023-03-26T14:58:16.659Z,99542.50
2023-03-26T15:00:43.552Z,99535.34
2023-03-26T15:03:10.335Z,99538.56
2023-03-26T15:05:37.163Z,99527.53
2023-03-26T15:08:03.912Z,99530.81
2023-03-26T15:10:30.649Z,99525.34
2023-03-26T15:12:57.566Z,99523.03
2023-03-26T15:15:25.847Z,99521.88
2023-03-26T15:17:52.631Z,99520.53
2023-03-26T15:20:19.651Z,99525.69
2023-03-26T15:22:46.431Z,99532.69
2023-03-26T15:25:13.344Z,99530.41
2023-03-26T15:27:40.100Z,99526.63
2023-03-26T15:30:06.838Z,99524.69
2023-03-26T15:32:33.619Z,99526.50
2023-03-26T15:35:00.459Z,99527.81
2023-03-26T15:37:27.372Z,99528.00
2023-03-26T15:40:12.667Z,99522.09
2023-03-26T15:42:39.535Z,99526.34
2023-03-26T15:45:06.274Z,99531.16
2023-03-26T15:47:33.124Z,99532.28
2023-03-26T15:49:59.897Z,99529.59
2023-03-26T15:52:26.683Z,99530.22
2023-03-26T15:54:53.494Z,99537.84
2023-03-26T15:57:20.465Z,99538.16
2023-03-26T15:59:47.278Z,99539.97
2023-03-26T16:02:16.013Z,99537.28
2023-03-26T16:04:50.471Z,99537.25
2023-03-26T16:07:19.149Z,99540.25
2023-03-26T16:09:46.119Z,99541.69
2023-03-26T16:12:12.868Z,99542.00
2023-03-26T16:14:39.633Z,99549.84
2023-03-26T16:17:06.428Z,99546.56
2023-03-26T16:19:36.053Z,99545.25
2023-03-26T16:22:02.847Z,99548.25
2023-03-26T16:24:30.299Z,99546.22
2023-03-26T16:26:57.083Z,99555.34
2023-03-26T16:29:24.528Z,99543.53
2023-03-26T16:31:51.290Z,99541.41
2023-03-26T16:34:18.178Z,99539.66
2023-03-26T16:36:45.123Z,99546.94
2023-03-26T16:39:11.900Z,99554.97
2023-03-26T16:41:38.651Z,99544.56
2023-03-26T16:44:05.556Z,99548.38
2023-03-26T16:46:32.468Z,99552.41
2023-03-26T16:48:59.232Z,99555.16
2023-03-26T16:51:26.040Z,99551.22
2023-03-26T16:53:52.800Z,99551.81
2023-03-26T16:56:26.053Z,99550.97
2023-03-26T16:58:53.661Z,99556.97
2023-03-26T17:01:21.128Z,99562.56
2023-03-26T17:03:48.002Z,99559.78
2023-03-26T17:06:15.169Z,99560.47
2023-03-26T17:08:42.473Z,99564.28
2023-03-26T17:11:09.260Z,99575.91
2023-03-26T17:13:36.211Z,99574.53
2023-03-26T17:16:02.966Z,99581.44
2023-03-26T17:18:29.854Z,99585.81
2023-03-26T17:20:58.443Z,99586.63
2023-03-26T17:23:25.239Z,99581.78
2023-03-26T17:25:51.983Z,99588.56
2023-03-26T17:28:18.764Z,99596.22
2023-03-26T17:30:45.515Z,99594.31
2023-03-26T17:33:13.260Z,99595.19
2023-03-26T17:35:40.212Z,99600.09
2023-03-26T17:38:07.960Z,99593.94
2023-03-26T17:40:34.763Z,99601.16
2023-03-26T17:43:01.536Z,99598.56
2023-03-26T17:45:30.293Z,99604.09
2023-03-26T17:48:00.289Z,99605.22
2023-03-26T17:50:27.416Z,99605.25
2023-03-26T17:52:54.165Z,99613.22
2023-03-26T17:55:21.068Z,99613.81
2023-03-26T17:57:47.985Z,99624.97
2023-03-26T18:00:16.161Z,99624.38
2023-03-26T18:02:43.159Z,99615.34
2023-03-26T18:05:10.100Z,99628.75
2023-03-26T18:07:36.844Z,99622.97
2023-03-26T18:10:03.603Z,99630.72
2023-03-26T18:12:30.356Z,99625.22
2023-03-26T18:14:57.104Z,99634.00
2023-03-26T18:17:23.902Z,99631.84
2023-03-26T18:19:50.956Z,99638.84
2023-03-26T18:22:17.931Z,99642.84
2023-03-26T18:24:44.665Z,99632.00
2023-03-26T18:27:12.440Z,99634.22
2023-03-26T18:29:39.446Z,99644.63
2023-03-26T18:32:07.200Z,99632.28
2023-03-26T18:34:34.223Z,99641.91
2023-03-26T18:37:01.126Z,99641.13
2023-03-26T18:39:27.930Z,99640.97
2023-03-26T18:41:54.731Z,99638.38
2023-03-26T18:44:21.657Z,99645.34
2023-03-26T18:46:48.454Z,99642.69
2023-03-26T18:49:15.507Z,99640.50
2023-03-26T18:51:53.994Z,99649.31
2023-03-26T18:54:23.385Z,99642.59
2023-03-26T18:56:51.960Z,99638.72
2023-03-26T18:59:19.490Z,99643.44
2023-03-26T19:01:47.445Z,99643.09
2023-03-26T19:04:14.303Z,99641.41
2023-03-26T19:06:41.095Z,99640.69
2023-03-26T19:09:19.599Z,99645.72
2023-03-26T19:11:55.624Z,99643.53
2023-03-26T19:14:22.437Z,99646.16
2023-03-26T19:16:49.232Z,99641.22
2023-03-26T19:19:16.355Z,99642.63
2023-03-26T19:21:43.159Z,99640.50
2023-03-26T19:24:10.246Z,99649.59
2023-03-26T19:26:36.992Z,99652.81
2023-03-26T19:29:03.748Z,99659.28
2023-03-26T19:31:31.612Z,99653.09
2023-03-26T19:33:58.543Z,99658.31
2023-03-26T19:36:25.308Z,99656.59
2023-03-26T19:38:52.124Z,99658.16
2023-03-26T19:41:18.862Z,99651.16
2023-03-26T19:43:45.752Z,99659.84
2023-03-26T19:46:12.545Z,99655.38
2023-03-26T19:48:45.842Z,99666.97
2023-03-26T19:51:13.770Z,99659.41
2023-03-26T19:53:40.641Z,99662.59
2023-03-26T19:56:07.540Z,99665.03
2023-03-26T19:58:35.519Z,99660.44
2023-03-26T20:01:02.279Z,99658.47
2023-03-26T20:03:29.285Z,99664.88
2023-03-26T20:05:56.336Z,99660.28
2023-03-26T20:08:26.906Z,99664.13
2023-03-26T20:10:54.431Z,99673.88
2023-03-26T20:13:21.500Z,99674.44
2023-03-26T20:15:48.255Z,99684.97
2023-03-26T20:18:32.358Z,99681.06
2023-03-26T20:20:59.181Z,99678.13
2023-03-26T20:23:28.570Z,99687.06
2023-03-26T20:25:55.513Z,99682.78
2023-03-26T20:28:24.126Z,99689.81
2023-03-26T20:30:50.969Z,99688.69
2023-03-26T20:33:17.840Z,99695.75
2023-03-26T20:35:44.718Z,99689.91
2023-03-26T20:38:11.994Z,99694.81
2023-03-26T20:40:38.820Z,99694.03
2023-03-26T20:43:05.553Z,99702.91
2023-03-26T20:45:32.853Z,99701.81
2023-03-26T20:48:02.537Z,99696.34
2023-03-26T20:50:30.033Z,99697.81
2023-03-26T20:53:00.660Z,99701.66
2023-03-26T20:55:28.228Z,99708.88
2023-03-26T20:57:55.169Z,99703.16
2023-03-26T21:00:25.950Z,99703.22
2023-03-26T21:02:53.312Z,99709.38
2023-03-26T21:05:24.399Z,99705.75
2023-03-26T21:07:51.682Z,99714.59
2023-03-26T21:10:19.507Z,99718.59
2023-03-26T21:12:46.542Z,99720.25
2023-03-26T21:15:20.832Z,99721.44
2023-03-26T21:17:50.953Z,99723.66
2023-03-26T21:20:17.859Z,99724.41
2023-03-26T21:22:46.022Z,99726.94
2023-03-26T21:25:12.810Z,99726.41
2023-03-26T21:27:39.595Z,99739.06
2023-03-26T21:30:06.423Z,99738.38
2023-03-26T21:32:33.251Z,99735.38
2023-03-26T21:35:00.654Z,99741.53
2023-03-26T21:37:27.577Z,99742.56
2023-03-26T21:39:54.347Z,99737.53
2023-03-26T21:42:21.230Z,99742.38
2023-03-26T21:44:47.981Z,99745.44
2023-03-26T21:47:14.772Z,99758.13
2023-03-26T21:49:41.617Z,99752.22
2023-03-26T21:52:08.418Z,99759.00
2023-03-26T21:54:35.343Z,99761.75
2023-03-26T21:57:02.199Z,99767.88
2023-03-26T21:59:28.946Z,99766.22
2023-03-26T22:01:55.740Z,99770.88
2023-03-26T22:04:22.592Z,99773.53
2023-03-26T22:06:49.393Z,99782.56
2023-03-26T22:09:18.499Z,99790.97
2023-03-26T22:11:47.554Z,99794.28
2023-03-26T22:14:14.291Z,99796.22
2023-03-26T22:16:41.511Z,99798.81
2023-03-26T22:19:08.607Z,99800.56
2023-03-26T22:21:35.741Z,99799.72
2023-03-26T22:24:03.961Z,99814.22
2023-03-26T22:26:30.720Z,99812.94
2023-03-26T22:28:57.554Z,99818.25
2023-03-26T22:31:27.162Z,99817.66
2023-03-26T22:33:53.948Z,99822.38
2023-03-26T22:36:23.187Z,99822.66
2023-03-26T22:38:52.794Z,99822.16
2023-03-26T22:41:19.540Z,99830.78
2023-03-26T22:43:46.308Z,99833.00
2023-03-26T22:46:13.916Z,99837.94
2023-03-26T22:48:40.754Z,99845.78
2023-03-26T22:51:08.079Z,99846.34
2023-03-26T22:53:34.850Z,99840.69
2023-03-26T22:56:01.668Z,99846.28
2023-03-26T22:58:28.449Z,99852.00
2023-03-26T23:00:55.399Z,99863.22
2023-03-26T23:03:35.079Z,99853.69
2023-03-26T23:06:03.721Z,99864.91
2023-03-26T23:08:30.985Z,99868.22
2023-03-26T23:10:58.380Z,99867.72
2023-03-26T23:13:25.345Z,99870.72
2023-03-26T23:15:52.106Z,99874.44
2023-03-26T23:18:18.927Z,99882.97
2023-03-26T23:20:45.691Z,99887.03
2023-03-26T23:23:12.438Z,99896.00
2023-03-26T23:25:40.615Z,99893.44
2023-03-26T23:28:07.385Z,99897.09
2023-03-26T23:30:35.525Z,99898.13
2023-03-26T23:33:02.346Z,99901.66
2023-03-26T23:35:29.435Z,99914.53
2023-03-26T23:37:56.272Z,99917.00
2023-03-26T23:40:23.266Z,99915.06
2023-03-26T23:42:50.098Z,99923.63
2023-03-26T23:45:17.256Z,99922.63
2023-03-26T23:47:44.466Z,99935.03
2023-03-26T23:50:11.400Z,99937.22
2023-03-26T23:52:38.165Z,99937.81
2023-03-26T23:55:05.776Z,99942.31
2023-03-26T23:57:32.579Z,99953.19
2023-03-26T23:59:59.352Z,99957.06
